KFNL/FNL METAR and TAF weather

Enter ICAO airport designator
Station Type Date Time Source
KFNL METAR 2019/04/18 09:56 UTC NOAA

KFNL 180956Z AUTO 15007KT 10SM CLR 04/01 A3010 RMK AO2 SLP166 T00390006


Station Type Date Time Source
KFNL Decoded METAR 2019/04/18 09:56 UTC NOAA

Fort Collins/Loveland, Fort Collins-Loveland Municipal Airport, CO, United States (KFNL) 40-27N 105-01W
Apr 18, 2019 - 05:56 AM EDT / 2019.04.18 0956 UTC
Wind: from the SSE (150 degrees) at 8 MPH (7 KT):0
Visibility: 10 mile(s):0
Sky conditions: clear
Temperature: 39.0 F (3.9 C)
Dew Point: 33.1 F (0.6 C)
Relative Humidity: 79%
Pressure (altimeter): 30.1 in. Hg (1019 hPa)
ob: KFNL 180956Z AUTO 15007KT 10SM CLR 04/01 A3010 RMK AO2 SLP166 T00390006
cycle: 10

Station Type Date Time Source
KFNL TAF UTC NOAA

Error!

Example: see airport list